Snel-info
Kleurcode:
Oranje
Jets mogen NIET vliegen, anderen wel.
Uiterste voorzichtigheid geboden!
Laatste update: 20/08/2018
Kleurcode informatie

Grasmaaien:

Geen maaibeurten gepland.

Volgende vliegdagen:

  • do 1 november : Allerheiligen
  • vr 2 november : Allerzielen
  • wo 15 november : Dag vd Dynastie

Er mag t.e.m. 31 augustus elke weekdag gevlogen worden tussen 17u30 en 21u00. Het terrein mag niet vroeger betreden worden.
Alle extra vliegdagen

Weersituatie op PMF:

Jets over Pampa (126).JPG

Huidige weersituatie

Huidig weerbeeld in Kleine Brogel, Belgium
Huidige wind in Kleine Brogel, Belgium

Dit is het bericht voor Kleine Brogel, Belgium en werd 34 minuten geleden gemaakt.
De wind waaide met een snelheid van 2.1 meter per seconde (7.4 km/h) uit het oost/noordoosten (060°).
De temperatuur was 25 °C. De gevoelstemperatuur was 26 °C. De atmosferische druk was 1019 hPa. De relative luchtvochtigheid was 53.8%. Het algemene zicht was meer dan 10 kilometer.

De onbewerkte METAR gegevens waarop dit bericht is gebaseerd zijn:
EBBL 211725Z AUTO 06004KT 9999 FEW046/// 25/15 Q1019 BLU


Opmerking:
De wind blijkt op PMF meestal iets krachtiger te waaien dan op Kleine Brogel. De windrichting klopt dan weer wel.




KMI

De weersvoorspellingen van het KMI vind je via deze link.


Buienradar

Op www.buienradar.nl kun je zelf zien waar het nu en de komende uren regent.